Time;durP1;ratioP1;P1;durP2;ratioP2;P2;SDS_P1;SDS_P2;PMS_P1;PMS_P2;Temp;Humidity;BMP_temperature;BMP_pressure;BME280_temperature;BME280_humidity;BME280_pressure;Samples;Min_cycle;Max_cycle;Signal;HPM_P1;HPM_P2
2022/04/14 00:00:11;;;;;;;;;;;15.50;99.90;;;;;;2063294;28;19918;-68
2022/04/14 00:01:11;;;;;;;;;;;15.50;99.90;;;;;;2063941;28;19909;-68
2022/04/14 00:02:11;;;;;;;;;;;15.50;99.90;;;;;;2060522;28;19914;-68
2022/04/14 00:03:13;;;;;;;;;;;15.50;99.90;;;;;;2064087;28;19996;-68
2022/04/14 00:04:13;;;;;;;;;;;15.50;99.90;;;;;;2060426;28;19930;-68
2022/04/14 00:05:14;;;;;;;;;;;15.50;99.90;;;;;;2063757;28;19924;-68
2022/04/14 00:06:15;;;;;;;;;;;15.50;99.90;;;;;;2061635;28;19921;-68
2022/04/14 00:07:15;;;;;;;;;;;15.50;99.90;;;;;;2062814;28;19914;-68
2022/04/14 00:08:15;;;;;;;;;;;15.50;99.90;;;;;;2063643;28;20293;-68
2022/04/14 00:09:16;;;;;;;;;;;15.50;99.90;;;;;;2060781;28;19987;-68
2022/04/14 00:10:16;;;;;;;;;;;15.40;99.90;;;;;;2062498;28;19920;-68
2022/04/14 00:11:17;;;;;;;;;;;15.40;99.90;;;;;;2060143;28;19975;-68
2022/04/14 00:12:17;;;;;;;;;;;15.40;99.90;;;;;;2063951;28;19920;-68
2022/04/14 00:13:18;;;;;;;;;;;15.40;99.90;;;;;;2061968;28;20250;-68
2022/04/14 00:14:18;;;;;;;;;;;15.40;99.90;;;;;;2064351;28;19914;-68
2022/04/14 00:15:19;;;;;;;;;;;15.40;99.90;;;;;;2060223;28;20369;-68
2022/04/14 00:16:19;;;;;;;;;;;15.40;99.90;;;;;;2060062;28;19957;-68
2022/04/14 00:17:20;;;;;;;;;;;15.40;99.90;;;;;;2062266;28;20356;-68
2022/04/14 00:18:20;;;;;;;;;;;15.40;99.90;;;;;;2063549;28;19941;-68
2022/04/14 00:19:21;;;;;;;;;;;15.40;99.90;;;;;;2063793;28;19914;-68
2022/04/14 00:20:22;;;;;;;;;;;15.40;99.90;;;;;;2062542;28;20428;-68
2022/04/14 00:21:22;;;;;;;;;;;15.40;99.90;;;;;;2057427;28;19910;-68
2022/04/14 00:22:23;;;;;;;;;;;15.40;99.90;;;;;;2064042;28;19930;-68
2022/04/14 00:23:23;;;;;;;;;;;15.40;99.90;;;;;;2059620;28;19918;-68
2022/04/14 00:24:24;;;;;;;;;;;15.30;99.90;;;;;;2062148;28;19972;-68
2022/04/14 00:25:24;;;;;;;;;;;15.40;99.90;;;;;;2060470;28;19914;-68
2022/04/14 00:26:25;;;;;;;;;;;15.30;99.90;;;;;;2060583;28;19914;-68
2022/04/14 00:27:25;;;;;;;;;;;15.30;99.90;;;;;;2062729;28;19972;-68
2022/04/14 00:28:26;;;;;;;;;;;15.30;99.90;;;;;;2062501;28;19910;-68
2022/04/14 00:29:26;;;;;;;;;;;15.30;99.90;;;;;;2063648;28;19918;-68
2022/04/14 00:30:27;;;;;;;;;;;15.30;99.90;;;;;;2064095;28;19917;-68
2022/04/14 00:31:27;;;;;;;;;;;15.30;99.90;;;;;;2060132;28;19918;-68
2022/04/14 00:32:28;;;;;;;;;;;15.30;99.90;;;;;;2062864;28;20016;-68
2022/04/14 00:33:28;;;;;;;;;;;15.30;99.90;;;;;;2060293;28;19914;-68
2022/04/14 00:34:28;;;;;;;;;;;15.30;99.90;;;;;;2070899;28;19932;-68
2022/04/14 00:35:29;;;;;;;;;;;15.30;99.90;;;;;;2071529;28;19913;-68
2022/04/14 00:36:29;;;;;;;;;;;15.20;99.90;;;;;;2063721;28;20433;-68
2022/04/14 00:37:30;;;;;;;;;;;15.20;99.90;;;;;;2063573;28;19918;-68
2022/04/14 00:38:30;;;;;;;;;;;15.20;99.90;;;;;;2063861;28;20407;-68
2022/04/14 00:39:31;;;;;;;;;;;15.10;99.90;;;;;;2063064;28;19914;-68
2022/04/14 00:40:31;;;;;;;;;;;15.10;99.90;;;;;;2062273;28;19981;-68
2022/04/14 00:41:31;;;;;;;;;;;15.10;99.90;;;;;;2060692;28;19914;-68
2022/04/14 00:42:32;;;;;;;;;;;15.10;99.90;;;;;;2062269;28;19916;-68
2022/04/14 00:43:33;;;;;;;;;;;15.00;99.90;;;;;;2064071;28;20137;-68
2022/04/14 00:44:33;;;;;;;;;;;15.00;99.90;;;;;;2062070;28;20421;-68
2022/04/14 00:45:34;;;;;;;;;;;15.00;99.90;;;;;;2062673;28;20507;-68
2022/04/14 00:46:34;;;;;;;;;;;15.00;99.90;;;;;;2060818;28;19913;-68
2022/04/14 00:47:35;;;;;;;;;;;15.00;99.90;;;;;;2059405;28;19910;-68
2022/04/14 00:48:36;;;;;;;;;;;15.00;99.90;;;;;;2061441;28;20384;-68
2022/04/14 00:49:37;;;;;;;;;;;15.00;99.90;;;;;;2063768;28;19920;-68
2022/04/14 00:50:37;;;;;;;;;;;15.00;99.90;;;;;;2062748;28;19944;-68
2022/04/14 00:51:38;;;;;;;;;;;15.00;99.90;;;;;;2063206;28;19921;-68
2022/04/14 00:52:45;;;;;;;;;;;15.00;99.90;;;;;;2063353;28;20309;-68
2022/04/14 00:53:45;;;;;;;;;;;15.00;99.90;;;;;;2057806;28;19918;-68
2022/04/14 00:54:46;;;;;;;;;;;15.00;99.90;;;;;;2062493;28;19914;-68
2022/04/14 00:55:46;;;;;;;;;;;15.00;99.90;;;;;;2059952;28;19910;-68
2022/04/14 00:56:47;;;;;;;;;;;15.00;99.90;;;;;;2061788;28;20010;-68
2022/04/14 00:57:47;;;;;;;;;;;15.00;99.90;;;;;;2060483;28;19973;-68
2022/04/14 00:58:48;;;;;;;;;;;15.00;99.90;;;;;;2059839;28;19918;-68
2022/04/14 00:59:49;;;;;;;;;;;15.00;99.90;;;;;;2064098;28;20551;-68
2022/04/14 01:00:49;;;;;;;;;;;15.00;99.90;;;;;;2060404;28;19910;-68
2022/04/14 01:01:50;;;;;;;;;;;15.00;99.90;;;;;;2063392;28;19921;-68
2022/04/14 01:02:51;;;;;;;;;;;15.10;99.90;;;;;;2060886;28;19972;-68
2022/04/14 01:03:53;;;;;;;;;;;15.00;99.90;;;;;;2060130;28;19952;-68
2022/04/14 01:04:54;;;;;;;;;;;15.00;99.90;;;;;;2061848;28;19921;-68
2022/04/14 01:05:55;;;;;;;;;;;15.00;99.90;;;;;;2059824;28;19965;-68
2022/04/14 01:06:56;;;;;;;;;;;15.00;99.90;;;;;;2060963;28;20449;-68
2022/04/14 01:07:57;;;;;;;;;;;15.00;99.90;;;;;;2061242;28;20268;-68
2022/04/14 01:10:16;;;;;;;;;;;15.00;99.90;;;;;;2060625;28;19953;-68
2022/04/14 01:11:17;;;;;;;;;;;15.00;99.90;;;;;;2063592;28;20526;-68
2022/04/14 01:12:17;;;;;;;;;;;15.00;99.90;;;;;;2056676;28;19942;-68
2022/04/14 01:13:18;;;;;;;;;;;15.00;99.90;;;;;;2066611;28;20277;-68
2022/04/14 01:14:28;;;;;;;;;;;15.00;99.90;;;;;;2067223;28;19910;-68
2022/04/14 01:15:28;;;;;;;;;;;15.00;99.90;;;;;;2061372;28;19914;-68
2022/04/14 01:16:28;;;;;;;;;;;15.00;99.90;;;;;;2057857;28;19914;-68
2022/04/14 01:17:29;;;;;;;;;;;14.90;99.90;;;;;;2062427;28;20528;-68
2022/04/14 01:18:29;;;;;;;;;;;14.90;99.90;;;;;;2064087;28;19953;-68
2022/04/14 01:19:30;;;;;;;;;;;15.00;99.90;;;;;;2063511;28;19966;-68
2022/04/14 01:20:31;;;;;;;;;;;15.00;99.90;;;;;;2060337;28;19910;-68
2022/04/14 01:21:33;;;;;;;;;;;14.90;99.90;;;;;;2057536;28;20009;-68
2022/04/14 01:22:35;;;;;;;;;;;15.00;99.90;;;;;;2058746;28;20344;-68
2022/04/14 01:23:40;;;;;;;;;;;14.90;99.90;;;;;;2061354;28;19921;-68
2022/04/14 01:24:41;;;;;;;;;;;14.90;99.90;;;;;;2063561;28;19973;-68
2022/04/14 01:25:42;;;;;;;;;;;14.90;99.90;;;;;;2062094;28;19910;-68
2022/04/14 01:26:42;;;;;;;;;;;14.90;99.90;;;;;;2060657;28;19956;-68
2022/04/14 01:27:43;;;;;;;;;;;14.90;99.90;;;;;;2059959;28;20399;-68
2022/04/14 01:28:43;;;;;;;;;;;14.90;99.90;;;;;;2061882;28;19918;-68
2022/04/14 01:29:46;;;;;;;;;;;14.90;99.90;;;;;;2060900;28;20365;-68
2022/04/14 01:30:46;;;;;;;;;;;14.90;99.90;;;;;;2061922;28;20288;-68
2022/04/14 01:31:47;;;;;;;;;;;14.90;99.90;;;;;;2062654;28;19914;-68
2022/04/14 01:32:48;;;;;;;;;;;14.90;99.90;;;;;;2063987;28;20393;-68
2022/04/14 01:33:48;;;;;;;;;;;14.90;99.90;;;;;;2060224;28;19919;-68
2022/04/14 01:34:49;;;;;;;;;;;14.90;99.90;;;;;;2061126;28;20385;-68
2022/04/14 01:35:50;;;;;;;;;;;14.90;99.90;;;;;;2062166;28;19914;-68
2022/04/14 01:36:51;;;;;;;;;;;14.90;99.90;;;;;;2060861;28;19960;-68
2022/04/14 01:37:51;;;;;;;;;;;14.90;99.90;;;;;;2059938;28;20305;-68
2022/04/14 01:38:52;;;;;;;;;;;14.90;99.90;;;;;;2063616;28;19910;-68
2022/04/14 01:39:52;;;;;;;;;;;14.90;99.90;;;;;;2060047;28;19921;-68
2022/04/14 01:40:52;;;;;;;;;;;14.90;99.90;;;;;;2057228;28;20580;-68
2022/04/14 01:41:53;;;;;;;;;;;14.90;99.90;;;;;;2060536;28;20384;-68
2022/04/14 01:42:53;;;;;;;;;;;14.90;99.90;;;;;;2063535;28;19913;-68
2022/04/14 01:43:54;;;;;;;;;;;14.90;99.90;;;;;;2061318;28;19914;-68
2022/04/14 01:44:54;;;;;;;;;;;14.80;99.90;;;;;;2059270;28;19910;-68
2022/04/14 01:45:55;;;;;;;;;;;14.90;99.90;;;;;;2060330;28;19914;-68
2022/04/14 01:46:55;;;;;;;;;;;14.80;99.90;;;;;;2062757;28;20270;-68
2022/04/14 01:47:56;;;;;;;;;;;14.90;99.90;;;;;;2059684;28;19909;-68
2022/04/14 01:48:58;;;;;;;;;;;14.80;99.90;;;;;;2063576;28;19921;-68
2022/04/14 01:49:58;;;;;;;;;;;14.80;99.90;;;;;;2063404;28;19921;-68
2022/04/14 01:50:59;;;;;;;;;;;14.80;99.90;;;;;;2060182;28;19918;-68
2022/04/14 01:51:59;;;;;;;;;;;14.80;99.90;;;;;;2061447;28;19918;-68
2022/04/14 01:53:00;;;;;;;;;;;14.80;99.90;;;;;;2061654;28;19949;-68
2022/04/14 01:54:00;;;;;;;;;;;14.80;99.90;;;;;;2060642;28;20397;-68
2022/04/14 01:55:02;;;;;;;;;;;14.80;99.90;;;;;;2062930;28;19921;-68
2022/04/14 01:56:03;;;;;;;;;;;14.80;99.90;;;;;;2058996;28;19921;-68
2022/04/14 01:57:04;;;;;;;;;;;14.80;99.90;;;;;;2063161;28;19997;-68
2022/04/14 01:58:04;;;;;;;;;;;14.80;99.90;;;;;;2058331;28;19983;-68
2022/04/14 01:59:05;;;;;;;;;;;14.80;99.90;;;;;;2060066;28;20025;-68
2022/04/14 02:00:07;;;;;;;;;;;14.80;99.90;;;;;;2061820;28;19965;-68
2022/04/14 02:01:07;;;;;;;;;;;14.80;99.90;;;;;;2063408;28;19914;-68
2022/04/14 02:02:08;;;;;;;;;;;14.80;99.90;;;;;;2059779;28;19910;-68
2022/04/14 02:03:08;;;;;;;;;;;14.70;99.90;;;;;;2063225;28;19967;-68
2022/04/14 02:04:09;;;;;;;;;;;14.70;99.90;;;;;;2064922;28;19918;-68
2022/04/14 02:05:09;;;;;;;;;;;14.70;99.90;;;;;;2063492;28;19910;-68
2022/04/14 02:06:10;;;;;;;;;;;14.80;99.90;;;;;;2065274;28;20350;-68
2022/04/14 02:07:10;;;;;;;;;;;14.70;99.90;;;;;;2061912;28;19917;-68
2022/04/14 02:08:11;;;;;;;;;;;14.70;99.90;;;;;;2064876;28;19938;-68
2022/04/14 02:09:12;;;;;;;;;;;14.70;99.90;;;;;;2068169;28;19917;-68
2022/04/14 02:10:14;;;;;;;;;;;14.70;99.90;;;;;;2066272;28;20273;-68
2022/04/14 02:11:15;;;;;;;;;;;14.70;99.90;;;;;;2065836;28;19997;-68
2022/04/14 02:12:16;;;;;;;;;;;14.70;99.90;;;;;;2063162;28;19910;-68
2022/04/14 02:13:16;;;;;;;;;;;14.70;99.90;;;;;;2061466;28;19914;-68
2022/04/14 02:14:17;;;;;;;;;;;14.60;99.90;;;;;;2064451;28;19949;-68
2022/04/14 02:15:18;;;;;;;;;;;14.60;99.90;;;;;;2060516;28;19910;-68
2022/04/14 02:16:19;;;;;;;;;;;14.60;99.90;;;;;;2064342;28;20313;-68
2022/04/14 02:17:19;;;;;;;;;;;14.60;99.90;;;;;;2061921;28;19949;-68
2022/04/14 02:18:20;;;;;;;;;;;14.60;99.90;;;;;;2065090;28;19914;-68
2022/04/14 02:19:20;;;;;;;;;;;14.60;99.90;;;;;;2062999;28;20004;-68
2022/04/14 02:20:21;;;;;;;;;;;14.60;99.90;;;;;;2063936;28;19918;-68
2022/04/14 02:21:21;;;;;;;;;;;14.60;99.90;;;;;;2058364;28;20065;-68
2022/04/14 02:22:21;;;;;;;;;;;14.60;99.90;;;;;;2063803;28;20340;-68
2022/04/14 02:23:23;;;;;;;;;;;14.60;99.90;;;;;;2061180;28;19910;-68
2022/04/14 02:24:23;;;;;;;;;;;14.60;99.90;;;;;;2064947;28;19957;-68
2022/04/14 02:25:23;;;;;;;;;;;14.60;99.90;;;;;;2064050;28;19921;-68
2022/04/14 02:26:24;;;;;;;;;;;14.60;99.90;;;;;;2062028;28;19917;-69
2022/04/14 02:27:25;;;;;;;;;;;14.60;99.90;;;;;;2065101;28;19914;-69
2022/04/14 02:28:26;;;;;;;;;;;14.60;99.90;;;;;;2062602;28;19914;-68
2022/04/14 02:29:26;;;;;;;;;;;14.60;99.90;;;;;;2061134;28;20017;-69
2022/04/14 02:30:27;;;;;;;;;;;14.60;99.90;;;;;;2065070;28;19921;-69
2022/04/14 02:31:27;;;;;;;;;;;14.60;99.90;;;;;;2060993;28;19914;-69
2022/04/14 02:32:27;;;;;;;;;;;14.60;99.90;;;;;;2063116;28;19981;-69
2022/04/14 02:33:28;;;;;;;;;;;14.50;99.90;;;;;;2063016;28;19910;-69
2022/04/14 02:34:28;;;;;;;;;;;14.60;99.90;;;;;;2060650;28;20282;-68
2022/04/14 02:35:29;;;;;;;;;;;14.60;99.90;;;;;;2064176;28;19918;-68
2022/04/14 02:36:29;;;;;;;;;;;14.60;99.90;;;;;;2061024;28;19952;-68
2022/04/14 02:37:30;;;;;;;;;;;14.60;99.90;;;;;;2064697;28;19914;-68
2022/04/14 02:38:30;;;;;;;;;;;14.60;99.90;;;;;;2064198;28;19943;-68
2022/04/14 02:39:31;;;;;;;;;;;14.60;99.90;;;;;;2063865;28;19918;-68
2022/04/14 02:40:31;;;;;;;;;;;14.50;99.90;;;;;;2061690;28;19942;-68
2022/04/14 02:41:32;;;;;;;;;;;14.60;99.90;;;;;;2063908;28;19914;-68
2022/04/14 02:42:32;;;;;;;;;;;14.50;99.90;;;;;;2064138;28;19917;-68
2022/04/14 02:43:35;;;;;;;;;;;14.50;99.90;;;;;;2064903;28;19913;-68
2022/04/14 02:44:36;;;;;;;;;;;14.50;99.90;;;;;;2061067;28;20366;-68
2022/04/14 02:45:36;;;;;;;;;;;14.50;99.90;;;;;;2062757;28;20281;-68
2022/04/14 02:46:36;;;;;;;;;;;14.50;99.90;;;;;;2064563;28;19914;-68
2022/04/14 02:47:37;;;;;;;;;;;14.50;99.90;;;;;;2061215;28;19910;-68
2022/04/14 02:48:37;;;;;;;;;;;14.50;99.90;;;;;;2063401;28;19953;-68
2022/04/14 02:49:38;;;;;;;;;;;14.50;99.90;;;;;;2061261;28;20281;-68
2022/04/14 02:50:43;;;;;;;;;;;14.50;99.90;;;;;;2063771;28;19914;-68
2022/04/14 02:51:43;;;;;;;;;;;14.50;99.90;;;;;;2062546;28;19936;-68
2022/04/14 02:52:44;;;;;;;;;;;14.50;99.90;;;;;;2062232;28;19917;-68
2022/04/14 02:53:44;;;;;;;;;;;14.50;99.90;;;;;;2061997;28;19910;-68
2022/04/14 02:54:45;;;;;;;;;;;14.50;99.90;;;;;;2064486;28;19914;-68
2022/04/14 02:55:45;;;;;;;;;;;14.50;99.90;;;;;;2064127;28;19944;-68
2022/04/14 02:56:45;;;;;;;;;;;14.50;99.90;;;;;;2064748;28;20404;-68
2022/04/14 02:57:47;;;;;;;;;;;14.50;99.90;;;;;;2061182;28;19910;-68
2022/04/14 02:58:48;;;;;;;;;;;14.50;99.90;;;;;;2062299;28;19918;-68
2022/04/14 02:59:48;;;;;;;;;;;14.40;99.90;;;;;;2063413;28;19945;-68
2022/04/14 03:00:49;;;;;;;;;;;14.40;99.90;;;;;;2066678;28;19925;-68
2022/04/14 03:01:50;;;;;;;;;;;14.50;99.90;;;;;;2065086;28;20093;-68
2022/04/14 03:02:50;;;;;;;;;;;14.50;99.90;;;;;;2064303;28;20460;-68
2022/04/14 03:03:51;;;;;;;;;;;14.40;99.90;;;;;;2064767;28;19914;-68
2022/04/14 03:04:51;;;;;;;;;;;14.40;99.90;;;;;;2067387;28;19913;-68
2022/04/14 03:05:52;;;;;;;;;;;14.40;99.90;;;;;;2065482;28;19948;-68
2022/04/14 03:06:52;;;;;;;;;;;14.40;99.90;;;;;;2066633;28;20024;-68
2022/04/14 03:07:52;;;;;;;;;;;14.40;99.90;;;;;;2061952;28;19918;-68
2022/04/14 03:08:53;;;;;;;;;;;14.40;99.90;;;;;;2063376;28;19914;-68
2022/04/14 03:09:53;;;;;;;;;;;14.40;99.90;;;;;;2064322;28;19914;-68
2022/04/14 03:10:55;;;;;;;;;;;14.40;99.90;;;;;;2060067;28;19957;-68
2022/04/14 03:11:55;;;;;;;;;;;14.40;99.90;;;;;;2060722;28;19925;-68
2022/04/14 03:12:57;;;;;;;;;;;14.40;99.90;;;;;;2062784;28;19988;-68
2022/04/14 03:13:58;;;;;;;;;;;14.30;99.90;;;;;;2060840;28;19914;-68
2022/04/14 03:14:58;;;;;;;;;;;14.40;99.90;;;;;;2060506;28;19911;-68
2022/04/14 03:15:59;;;;;;;;;;;14.40;99.90;;;;;;2063500;28;19949;-68
2022/04/14 03:16:59;;;;;;;;;;;14.40;99.90;;;;;;2061525;28;19944;-68
2022/04/14 03:18:00;;;;;;;;;;;14.40;99.90;;;;;;2062940;28;19920;-68
2022/04/14 03:19:00;;;;;;;;;;;14.40;99.90;;;;;;2064752;28;19918;-68
2022/04/14 03:20:01;;;;;;;;;;;14.40;99.90;;;;;;2060687;28;19916;-68
2022/04/14 03:21:01;;;;;;;;;;;14.30;99.90;;;;;;2063458;28;19961;-68
2022/04/14 03:22:02;;;;;;;;;;;14.30;99.90;;;;;;2059854;28;20309;-68
2022/04/14 03:23:02;;;;;;;;;;;14.30;99.90;;;;;;2062841;28;19910;-68
2022/04/14 03:24:03;;;;;;;;;;;14.30;99.90;;;;;;2063811;28;19917;-68
2022/04/14 03:25:04;;;;;;;;;;;14.30;99.90;;;;;;2063327;28;19961;-68
2022/04/14 03:26:08;;;;;;;;;;;14.30;99.90;;;;;;2061268;28;19910;-68
2022/04/14 03:27:08;;;;;;;;;;;14.30;99.90;;;;;;2063367;28;19918;-68
2022/04/14 03:28:09;;;;;;;;;;;14.30;99.90;;;;;;2060761;28;19914;-68
2022/04/14 03:29:09;;;;;;;;;;;14.20;99.90;;;;;;2063585;28;20005;-68
2022/04/14 03:30:10;;;;;;;;;;;14.20;99.90;;;;;;2060302;28;19961;-68
2022/04/14 03:31:11;;;;;;;;;;;14.30;99.90;;;;;;2064486;28;19964;-68
2022/04/14 03:32:11;;;;;;;;;;;14.30;99.90;;;;;;2062767;28;19968;-68
2022/04/14 03:33:11;;;;;;;;;;;14.20;99.90;;;;;;2064594;28;20539;-68
2022/04/14 03:34:12;;;;;;;;;;;14.20;99.90;;;;;;2063565;28;20013;-68
2022/04/14 03:35:13;;;;;;;;;;;14.20;99.90;;;;;;2063824;28;19914;-68
2022/04/14 03:36:13;;;;;;;;;;;14.20;99.90;;;;;;2060065;28;20293;-68
2022/04/14 03:37:14;;;;;;;;;;;14.20;99.90;;;;;;2059796;28;19954;-69
2022/04/14 03:38:14;;;;;;;;;;;14.20;99.90;;;;;;2063644;28;19996;-68
2022/04/14 03:39:15;;;;;;;;;;;14.20;99.90;;;;;;2062364;28;20000;-68
2022/04/14 03:40:16;;;;;;;;;;;14.20;99.90;;;;;;2062517;28;19914;-68
2022/04/14 03:41:16;;;;;;;;;;;14.20;99.90;;;;;;2060820;28;19960;-68
2022/04/14 03:42:17;;;;;;;;;;;14.20;99.90;;;;;;2063234;28;19910;-68
2022/04/14 03:43:17;;;;;;;;;;;14.20;99.90;;;;;;2061003;28;19937;-68
2022/04/14 03:44:18;;;;;;;;;;;14.20;99.90;;;;;;2060527;28;19914;-68
2022/04/14 03:45:18;;;;;;;;;;;14.20;99.90;;;;;;2062122;28;20274;-68
2022/04/14 03:46:19;;;;;;;;;;;14.20;99.90;;;;;;2061493;28;19937;-69
2022/04/14 03:47:20;;;;;;;;;;;14.20;99.90;;;;;;2069283;28;19910;-69
2022/04/14 03:48:20;;;;;;;;;;;14.20;99.90;;;;;;2067746;28;19913;-69
2022/04/14 03:49:21;;;;;;;;;;;14.20;99.90;;;;;;2060292;28;20361;-69
2022/04/14 03:50:21;;;;;;;;;;;14.20;99.90;;;;;;2063467;28;19916;-68
2022/04/14 03:51:23;;;;;;;;;;;14.20;99.90;;;;;;2063840;28;19917;-68
2022/04/14 03:52:24;;;;;;;;;;;14.10;99.90;;;;;;2063543;28;19914;-68
2022/04/14 03:53:24;;;;;;;;;;;14.20;99.90;;;;;;2064191;28;19910;-68
2022/04/14 03:54:25;;;;;;;;;;;14.10;99.90;;;;;;2062243;28;19917;-68
2022/04/14 03:55:25;;;;;;;;;;;14.10;99.90;;;;;;2059905;28;19921;-69
2022/04/14 03:56:26;;;;;;;;;;;14.10;99.90;;;;;;2064421;28;19914;-69
2022/04/14 03:57:26;;;;;;;;;;;14.10;99.90;;;;;;2064730;28;19944;-69
2022/04/14 03:58:27;;;;;;;;;;;14.10;99.90;;;;;;2064088;28;19913;-69
2022/04/14 03:59:27;;;;;;;;;;;14.10;99.90;;;;;;2064027;28;19910;-68
2022/04/14 04:00:27;;;;;;;;;;;14.10;99.90;;;;;;2061928;28;19913;-68
2022/04/14 04:01:28;;;;;;;;;;;14.10;99.90;;;;;;2064620;28;19921;-68
2022/04/14 04:02:28;;;;;;;;;;;14.10;99.90;;;;;;2064333;28;19910;-68
2022/04/14 04:03:29;;;;;;;;;;;14.10;99.90;;;;;;2062670;28;20436;-68
2022/04/14 04:04:31;;;;;;;;;;;14.10;99.90;;;;;;2061878;28;19918;-68
2022/04/14 04:05:31;;;;;;;;;;;14.10;99.90;;;;;;2060860;28;20374;-68
2022/04/14 04:06:32;;;;;;;;;;;14.10;99.90;;;;;;2064067;28;20259;-68
2022/04/14 04:07:32;;;;;;;;;;;14.10;99.90;;;;;;2063533;28;19921;-68
2022/04/14 04:08:32;;;;;;;;;;;14.10;99.90;;;;;;2060846;28;20282;-68
2022/04/14 04:09:33;;;;;;;;;;;14.10;99.90;;;;;;2060033;28;19918;-68
2022/04/14 04:10:34;;;;;;;;;;;14.10;99.90;;;;;;2060317;28;20358;-68
2022/04/14 04:11:34;;;;;;;;;;;14.10;99.90;;;;;;2063644;28;19972;-68
2022/04/14 04:12:35;;;;;;;;;;;14.00;99.90;;;;;;2061829;28;19914;-68
2022/04/14 04:13:35;;;;;;;;;;;14.10;99.90;;;;;;2060387;28;19910;-68
2022/04/14 04:14:35;;;;;;;;;;;14.10;99.90;;;;;;2064203;28;20004;-69
2022/04/14 04:15:36;;;;;;;;;;;14.00;99.90;;;;;;2061249;28;19957;-69
2022/04/14 04:16:36;;;;;;;;;;;14.10;99.90;;;;;;2060587;28;19910;-69
2022/04/14 04:17:38;;;;;;;;;;;14.00;99.90;;;;;;2063430;28;19988;-69
2022/04/14 04:18:39;;;;;;;;;;;14.00;99.90;;;;;;2062039;28;19910;-69
2022/04/14 04:19:39;;;;;;;;;;;14.00;99.90;;;;;;2063706;28;20004;-69
2022/04/14 04:20:40;;;;;;;;;;;14.00;99.90;;;;;;2058810;28;19913;-69
2022/04/14 04:21:40;;;;;;;;;;;14.00;99.90;;;;;;2062643;28;19937;-69
2022/04/14 04:22:41;;;;;;;;;;;14.00;99.90;;;;;;2063173;28;19921;-69
2022/04/14 04:23:41;;;;;;;;;;;14.00;99.90;;;;;;2058242;28;19914;-69
2022/04/14 04:24:42;;;;;;;;;;;14.00;99.90;;;;;;2059699;28;20403;-69
2022/04/14 04:25:42;;;;;;;;;;;14.00;99.90;;;;;;2057513;28;19925;-69
2022/04/14 04:26:42;;;;;;;;;;;14.00;99.90;;;;;;2060945;28;19917;-69
2022/04/14 04:27:43;;;;;;;;;;;13.90;99.90;;;;;;2061271;28;19941;-69
2022/04/14 04:28:43;;;;;;;;;;;13.90;99.90;;;;;;2063850;28;19922;-69
2022/04/14 04:29:44;;;;;;;;;;;13.90;99.90;;;;;;2064187;28;19957;-69
2022/04/14 04:30:44;;;;;;;;;;;13.90;99.90;;;;;;2061338;28;19941;-69
2022/04/14 04:31:45;;;;;;;;;;;13.90;99.90;;;;;;2060195;28;19937;-68
2022/04/14 04:32:45;;;;;;;;;;;13.90;99.90;;;;;;2063869;28;19945;-68
2022/04/14 04:33:47;;;;;;;;;;;13.90;99.90;;;;;;2062371;28;20312;-68
2022/04/14 04:34:48;;;;;;;;;;;13.90;99.90;;;;;;2058140;28;19914;-68
2022/04/14 04:35:51;;;;;;;;;;;13.90;99.90;;;;;;2062653;28;19995;-68
2022/04/14 04:36:52;;;;;;;;;;;13.90;99.90;;;;;;2058445;28;19914;-69
2022/04/14 04:37:52;;;;;;;;;;;13.90;99.90;;;;;;2055634;28;19921;-69
2022/04/14 04:38:53;;;;;;;;;;;13.90;99.90;;;;;;2059095;28;20301;-69
2022/04/14 04:39:53;;;;;;;;;;;13.80;99.90;;;;;;2060745;28;19918;-69
2022/04/14 04:40:55;;;;;;;;;;;13.90;99.90;;;;;;2058378;28;19922;-68
2022/04/14 04:41:55;;;;;;;;;;;13.80;99.90;;;;;;2059446;28;19915;-68
2022/04/14 04:42:56;;;;;;;;;;;13.80;99.90;;;;;;2059904;28;19909;-68
2022/04/14 04:43:56;;;;;;;;;;;13.80;99.90;;;;;;2061761;28;19921;-68
2022/04/14 04:44:57;;;;;;;;;;;13.80;99.90;;;;;;2060467;28;19914;-68
2022/04/14 04:45:57;;;;;;;;;;;13.80;99.90;;;;;;2059311;28;19992;-69
2022/04/14 04:46:57;;;;;;;;;;;13.80;99.90;;;;;;2060944;28;20207;-69
2022/04/14 04:47:58;;;;;;;;;;;13.80;99.90;;;;;;2059236;28;19918;-69
2022/04/14 04:48:58;;;;;;;;;;;13.80;99.90;;;;;;2057328;28;20669;-69
2022/04/14 04:50:00;;;;;;;;;;;13.80;99.90;;;;;;2060291;28;20592;-69
2022/04/14 04:51:00;;;;;;;;;;;13.80;99.90;;;;;;2061660;28;20242;-69
2022/04/14 04:52:01;;;;;;;;;;;13.80;99.90;;;;;;2061075;28;20358;-68
2022/04/14 04:53:01;;;;;;;;;;;13.80;99.90;;;;;;2056730;28;19917;-69
2022/04/14 04:54:02;;;;;;;;;;;13.80;99.90;;;;;;2060212;28;19914;-69
2022/04/14 04:55:02;;;;;;;;;;;13.80;99.90;;;;;;2058241;28;19910;-69
2022/04/14 04:56:03;;;;;;;;;;;13.80;99.90;;;;;;2056355;28;19910;-69
2022/04/14 04:57:04;;;;;;;;;;;13.70;99.90;;;;;;2059335;28;20396;-69
2022/04/14 04:58:04;;;;;;;;;;;13.70;99.90;;;;;;2058470;28;19920;-69
2022/04/14 04:59:05;;;;;;;;;;;13.70;99.90;;;;;;2058522;28;20012;-69
2022/04/14 05:00:05;;;;;;;;;;;13.80;99.90;;;;;;2056970;28;19914;-69
2022/04/14 05:01:06;;;;;;;;;;;13.70;99.90;;;;;;2057881;28;19911;-69
2022/04/14 05:02:06;;;;;;;;;;;13.70;99.90;;;;;;2059221;28;20010;-69
2022/04/14 05:03:10;;;;;;;;;;;13.70;99.90;;;;;;2059488;28;19914;-69
2022/04/14 05:04:11;;;;;;;;;;;13.70;99.90;;;;;;2061719;28;19914;-69
2022/04/14 05:05:11;;;;;;;;;;;13.70;99.90;;;;;;2061468;28;19917;-68
2022/04/14 05:06:12;;;;;;;;;;;13.70;99.90;;;;;;2057193;28;19909;-68
2022/04/14 05:07:12;;;;;;;;;;;13.70;99.90;;;;;;2059308;28;19910;-68
2022/04/14 05:08:13;;;;;;;;;;;13.70;99.90;;;;;;2060339;28;19936;-68
2022/04/14 05:09:13;;;;;;;;;;;13.70;99.90;;;;;;2061289;28;19918;-68
2022/04/14 05:10:14;;;;;;;;;;;13.70;99.90;;;;;;2057143;28;20404;-69
2022/04/14 05:11:14;;;;;;;;;;;13.70;99.90;;;;;;2059153;28;19918;-69
2022/04/14 05:12:15;;;;;;;;;;;13.70;99.90;;;;;;2058099;28;19933;-69
2022/04/14 05:13:15;;;;;;;;;;;13.70;99.90;;;;;;2059469;28;19910;-68
2022/04/14 05:14:16;;;;;;;;;;;13.60;99.90;;;;;;2058729;28;20000;-68
2022/04/14 05:15:16;;;;;;;;;;;13.70;99.90;;;;;;2055734;28;19917;-68
2022/04/14 05:16:17;;;;;;;;;;;13.70;99.90;;;;;;2059982;28;19950;-68
2022/04/14 05:17:18;;;;;;;;;;;13.70;99.90;;;;;;2056465;28;19982;-68
2022/04/14 05:18:18;;;;;;;;;;;13.70;99.90;;;;;;2055839;28;19926;-68
2022/04/14 05:19:19;;;;;;;;;;;13.70;99.90;;;;;;2057707;28;19910;-68
2022/04/14 05:20:19;;;;;;;;;;;13.70;99.90;;;;;;2056946;28;20021;-69
2022/04/14 05:21:20;;;;;;;;;;;13.70;99.90;;;;;;2059297;28;20208;-69
2022/04/14 05:22:20;;;;;;;;;;;13.70;99.90;;;;;;2060351;28;20923;-69
2022/04/14 05:23:20;;;;;;;;;;;13.70;99.90;;;;;;2058090;28;19920;-69
2022/04/14 05:24:21;;;;;;;;;;;13.70;99.90;;;;;;2057678;28;19918;-69
2022/04/14 05:25:21;;;;;;;;;;;13.70;99.90;;;;;;2060366;28;19921;-68
2022/04/14 05:26:22;;;;;;;;;;;13.70;99.90;;;;;;2058401;28;19958;-68
2022/04/14 05:27:22;;;;;;;;;;;13.70;99.90;;;;;;2060538;28;20350;-68
2022/04/14 05:28:23;;;;;;;;;;;13.70;99.90;;;;;;2059584;28;19961;-68
2022/04/14 05:29:23;;;;;;;;;;;13.70;99.90;;;;;;2060621;28;19944;-68
2022/04/14 05:30:24;;;;;;;;;;;13.70;99.90;;;;;;2058854;28;19964;-69
2022/04/14 05:31:25;;;;;;;;;;;13.70;99.90;;;;;;2058091;28;19914;-69
2022/04/14 05:32:26;;;;;;;;;;;13.70;99.90;;;;;;2058034;28;19918;-69
2022/04/14 05:33:26;;;;;;;;;;;13.60;99.90;;;;;;2058712;28;19914;-69
2022/04/14 05:34:27;;;;;;;;;;;13.70;99.90;;;;;;2059847;28;19914;-69
2022/04/14 05:35:27;;;;;;;;;;;13.70;99.90;;;;;;2059097;28;19918;-69
2022/04/14 05:36:28;;;;;;;;;;;13.70;99.90;;;;;;2057251;28;19968;-68
2022/04/14 05:37:28;;;;;;;;;;;13.70;99.90;;;;;;2061008;28;20026;-68
2022/04/14 05:38:29;;;;;;;;;;;13.70;99.90;;;;;;2060976;28;19910;-68
2022/04/14 05:39:29;;;;;;;;;;;13.70;99.90;;;;;;2061770;28;19921;-68
2022/04/14 05:40:29;;;;;;;;;;;13.70;99.90;;;;;;2059072;28;19910;-68
2022/04/14 05:41:30;;;;;;;;;;;13.70;99.90;;;;;;2060105;28;19924;-68
2022/04/14 05:42:30;;;;;;;;;;;13.70;99.90;;;;;;2062408;28;19913;-68
2022/04/14 05:43:31;;;;;;;;;;;13.70;99.90;;;;;;2061105;28;19914;-68
2022/04/14 05:44:31;;;;;;;;;;;13.70;99.90;;;;;;2059144;28;20275;-68
2022/04/14 05:45:32;;;;;;;;;;;13.70;99.90;;;;;;2065141;28;20427;-68
2022/04/14 05:46:33;;;;;;;;;;;13.70;99.90;;;;;;2068142;28;19917;-68
2022/04/14 05:47:33;;;;;;;;;;;13.70;99.90;;;;;;2059212;28;19914;-68
2022/04/14 05:48:34;;;;;;;;;;;13.70;99.90;;;;;;2061770;28;19913;-68
2022/04/14 05:49:34;;;;;;;;;;;13.70;99.90;;;;;;2059453;28;20008;-68
2022/04/14 05:50:35;;;;;;;;;;;13.70;99.90;;;;;;2061269;28;19918;-68
2022/04/14 05:51:35;;;;;;;;;;;13.70;99.90;;;;;;2057639;28;19918;-68
2022/04/14 05:52:36;;;;;;;;;;;13.70;99.90;;;;;;2061206;28;19910;-68
2022/04/14 05:53:36;;;;;;;;;;;13.80;99.90;;;;;;2058901;28;19914;-69